createdAt,value
2023-05-16T00:00:44.901Z,100007.19
2023-05-16T00:03:26.821Z,100012.34
2023-05-16T00:05:53.592Z,100006.44
2023-05-16T00:08:19.688Z,100016.31
2023-05-16T00:10:46.093Z,100026.34
2023-05-16T00:13:12.933Z,100020.81
2023-05-16T00:15:39.266Z,100019.97
2023-05-16T00:18:05.396Z,100024.06
2023-05-16T00:20:31.873Z,100024.44
2023-05-16T00:23:00.954Z,100022.44
2023-05-16T00:25:28.111Z,100027.78
2023-05-16T00:27:54.190Z,100022.16
2023-05-16T00:30:22.008Z,100023.47
2023-05-16T00:32:48.162Z,100034.22
2023-05-16T00:35:14.560Z,100030.56
2023-05-16T00:37:41.676Z,100033.44
2023-05-16T00:40:08.538Z,100033.63
2023-05-16T00:42:50.728Z,100031.16
2023-05-16T00:45:17.377Z,100020.28
2023-05-16T00:47:43.476Z,100030.06
2023-05-16T00:50:10.267Z,100036.88
2023-05-16T00:52:36.502Z,100034.72
2023-05-16T00:55:03.741Z,100044.75
2023-05-16T00:57:30.205Z,100049.69
2023-05-16T00:59:56.926Z,100047.69
2023-05-16T01:02:27.633Z,100049.88
2023-05-16T01:04:55.870Z,100052.28
2023-05-16T01:07:23.029Z,100053.59
2023-05-16T01:09:49.616Z,100057.75
2023-05-16T01:12:27.379Z,100066.31
2023-05-16T01:15:20.150Z,100065.28
2023-05-16T01:17:55.420Z,100064.88
2023-05-16T01:20:44.763Z,100071.78
2023-05-16T01:23:27.054Z,100072.09
2023-05-16T01:26:13.685Z,100085.31
2023-05-16T01:28:41.047Z,100078.59
2023-05-16T01:31:07.471Z,100090.59
2023-05-16T01:33:33.568Z,100082.28
2023-05-16T01:36:05.935Z,100080.22
2023-05-16T01:38:45.326Z,100098.91
2023-05-16T01:41:21.263Z,100094.47
2023-05-16T01:43:50.847Z,100100.94
2023-05-16T01:46:29.150Z,100094.47
2023-05-16T01:49:05.423Z,100103.31
2023-05-16T01:51:33.105Z,100106.00
2023-05-16T01:54:05.710Z,100110.81
2023-05-16T01:56:32.777Z,100115.75
2023-05-16T01:59:00.933Z,100121.38
2023-05-16T02:01:30.564Z,100131.88
2023-05-16T02:03:58.134Z,100141.19
2023-05-16T02:06:25.243Z,100143.22
2023-05-16T02:08:51.793Z,100151.22
2023-05-16T02:11:18.160Z,100151.38
2023-05-16T02:13:44.273Z,100162.28
2023-05-16T02:16:10.991Z,100155.78
2023-05-16T02:18:38.423Z,100150.53
2023-05-16T02:21:04.999Z,100148.16
2023-05-16T02:23:31.456Z,100157.84
2023-05-16T02:25:59.576Z,100160.72
2023-05-16T02:28:25.757Z,100161.94
2023-05-16T02:30:59.116Z,100162.97
2023-05-16T02:33:26.856Z,100175.38
2023-05-16T02:35:53.914Z,100172.50
2023-05-16T02:38:20.476Z,100183.88
2023-05-16T02:40:48.146Z,100185.25
2023-05-16T02:43:14.250Z,100182.88
2023-05-16T02:45:42.245Z,100185.75
2023-05-16T02:48:08.832Z,100190.84
2023-05-16T02:50:36.949Z,100191.72
2023-05-16T02:53:03.034Z,100201.56
2023-05-16T02:55:29.565Z,100205.31
2023-05-16T02:57:56.297Z,100205.97
2023-05-16T03:00:23.116Z,100214.59
2023-05-16T03:02:49.463Z,100219.19
2023-05-16T03:05:16.353Z,100212.09
2023-05-16T03:07:42.413Z,100211.59
2023-05-16T03:10:08.871Z,100204.59
2023-05-16T03:12:35.099Z,100210.72
2023-05-16T03:15:01.533Z,100214.97
2023-05-16T03:17:28.092Z,100219.72
2023-05-16T03:19:54.538Z,100227.34
2023-05-16T03:22:20.706Z,100216.31
2023-05-16T03:24:47.256Z,100225.66
2023-05-16T03:27:13.822Z,100223.63
2023-05-16T03:29:40.326Z,100236.50
2023-05-16T03:32:06.749Z,100246.34
2023-05-16T03:34:33.556Z,100252.78
2023-05-16T03:36:59.756Z,100242.94
2023-05-16T03:39:26.313Z,100247.00
2023-05-16T03:41:55.498Z,100248.22
2023-05-16T03:44:22.137Z,100259.56
2023-05-16T03:46:50.609Z,100254.47
2023-05-16T03:49:17.137Z,100260.06
2023-05-16T03:51:43.204Z,100264.97
2023-05-16T03:54:09.632Z,100268.88
2023-05-16T03:56:36.161Z,100274.97
2023-05-16T03:59:02.584Z,100281.22
2023-05-16T04:01:29.107Z,100283.63
2023-05-16T04:03:56.009Z,100294.66
2023-05-16T04:06:22.380Z,100303.94
2023-05-16T04:08:48.817Z,100306.78
2023-05-16T04:11:14.930Z,100315.25
2023-05-16T04:13:41.313Z,100321.84
2023-05-16T04:16:07.438Z,100324.41
2023-05-16T04:18:34.089Z,100323.34
2023-05-16T04:21:00.409Z,100334.03
2023-05-16T04:23:26.873Z,100344.69
2023-05-16T04:25:53.376Z,100344.34
2023-05-16T04:28:20.249Z,100343.09
2023-05-16T04:30:46.953Z,100350.72
2023-05-16T04:33:13.465Z,100359.34
2023-05-16T04:35:39.910Z,100361.69
2023-05-16T04:38:06.534Z,100375.09
2023-05-16T04:40:33.226Z,100367.09
2023-05-16T04:42:59.771Z,100367.69
2023-05-16T04:45:26.014Z,100376.84
2023-05-16T04:47:52.859Z,100373.47
2023-05-16T04:50:19.218Z,100376.78
2023-05-16T04:52:45.966Z,100378.44
2023-05-16T04:55:12.281Z,100380.84
2023-05-16T04:57:38.795Z,100381.94
2023-05-16T05:00:11.359Z,100379.78
2023-05-16T05:02:38.431Z,100383.94
2023-05-16T05:05:05.964Z,100383.22
2023-05-16T05:07:32.566Z,100394.59
2023-05-16T05:10:05.909Z,100399.25
2023-05-16T05:12:33.074Z,100392.75
2023-05-16T05:14:59.397Z,100395.66
2023-05-16T05:17:26.166Z,100402.28
2023-05-16T05:19:52.412Z,100409.06
2023-05-16T05:22:18.837Z,100416.53
2023-05-16T05:24:45.710Z,100412.13
2023-05-16T05:27:12.425Z,100413.81
2023-05-16T05:29:39.784Z,100411.16
2023-05-16T05:32:07.647Z,100408.78
2023-05-16T05:34:33.832Z,100402.31
2023-05-16T05:37:00.229Z,100410.38
2023-05-16T05:39:26.396Z,100413.19
2023-05-16T05:41:52.770Z,100415.13
2023-05-16T05:44:18.855Z,100419.28
2023-05-16T05:46:45.389Z,100423.00
2023-05-16T05:49:11.733Z,100431.69
2023-05-16T05:51:38.317Z,100428.22
2023-05-16T05:54:04.399Z,100439.22
2023-05-16T05:56:30.845Z,100434.25
2023-05-16T05:58:56.999Z,100436.84
2023-05-16T06:01:23.748Z,100434.25
2023-05-16T06:03:50.558Z,100439.41
2023-05-16T06:06:17.479Z,100448.03
2023-05-16T06:08:43.572Z,100461.69
2023-05-16T06:11:10.207Z,100456.41
2023-05-16T06:13:36.355Z,100467.19
2023-05-16T06:16:02.922Z,100472.22
2023-05-16T06:18:29.208Z,100481.03
2023-05-16T06:20:55.632Z,100488.69
2023-05-16T06:23:21.755Z,100488.72
2023-05-16T06:25:48.117Z,100495.47
2023-05-16T06:28:14.244Z,100499.66
2023-05-16T06:30:40.665Z,100503.31
2023-05-16T06:33:06.822Z,100511.75
2023-05-16T06:35:33.207Z,100503.22
2023-05-16T06:37:59.262Z,100503.31
2023-05-16T06:40:25.698Z,100511.13
2023-05-16T06:42:51.878Z,100511.00
2023-05-16T06:45:18.373Z,100503.34
2023-05-16T06:47:44.550Z,100510.09
2023-05-16T06:50:11.249Z,100516.50
2023-05-16T06:52:38.323Z,100511.47
2023-05-16T06:55:05.216Z,100523.25
2023-05-16T06:57:31.576Z,100523.66
2023-05-16T06:59:58.011Z,100525.53
2023-05-16T07:02:24.312Z,100523.44
2023-05-16T07:04:51.669Z,100520.28
2023-05-16T07:07:17.912Z,100515.13
2023-05-16T07:09:44.309Z,100505.44
2023-05-16T07:12:11.036Z,100517.59
2023-05-16T07:14:37.566Z,100529.00
2023-05-16T07:17:04.076Z,100526.22
2023-05-16T07:19:30.740Z,100533.56
2023-05-16T07:21:56.958Z,100534.34
2023-05-16T07:24:23.327Z,100538.75
2023-05-16T07:26:49.528Z,100537.41
2023-05-16T07:29:16.077Z,100530.91
2023-05-16T07:31:42.309Z,100526.81
2023-05-16T07:34:09.768Z,100519.72
2023-05-16T07:36:36.274Z,100523.28
2023-05-16T07:39:03.456Z,100518.44
2023-05-16T07:41:30.511Z,100526.81
2023-05-16T07:43:56.998Z,100524.59
2023-05-16T07:46:23.313Z,100532.06
2023-05-16T07:48:49.900Z,100537.97
2023-05-16T07:51:16.222Z,100535.19
2023-05-16T07:53:42.659Z,100525.78
2023-05-16T07:56:08.964Z,100515.88
2023-05-16T07:58:35.640Z,100520.94
2023-05-16T08:01:02.234Z,100515.03
2023-05-16T08:03:28.811Z,100517.06
2023-05-16T08:05:55.364Z,100524.34
2023-05-16T08:08:22.136Z,100525.25
2023-05-16T08:10:48.391Z,100522.94
2023-05-16T08:13:14.885Z,100525.66
2023-05-16T08:15:41.865Z,100529.53
2023-05-16T08:18:16.729Z,100532.38
2023-05-16T08:20:43.618Z,100526.75
2023-05-16T08:23:10.119Z,100532.53
2023-05-16T08:25:36.366Z,100524.94
2023-05-16T08:28:02.965Z,100537.28
2023-05-16T08:30:29.224Z,100532.28
2023-05-16T08:32:55.855Z,100531.03
2023-05-16T08:35:22.029Z,100545.25
2023-05-16T08:37:48.437Z,100560.22
2023-05-16T08:40:15.585Z,100561.06
2023-05-16T08:42:43.489Z,100562.56
2023-05-16T08:45:12.224Z,100554.00
2023-05-16T08:47:43.297Z,100562.97
2023-05-16T08:50:10.052Z,100553.78
2023-05-16T08:52:39.812Z,100556.50
2023-05-16T08:55:11.021Z,100552.13
2023-05-16T08:57:52.823Z,100554.09
2023-05-16T09:00:20.058Z,100562.09
2023-05-16T09:02:46.754Z,100552.22
2023-05-16T09:05:15.299Z,100544.81
2023-05-16T09:07:43.374Z,100549.63
2023-05-16T09:10:11.129Z,100546.69
2023-05-16T09:12:39.430Z,100548.56
2023-05-16T09:15:08.476Z,100541.94
2023-05-16T09:17:42.892Z,100549.47
2023-05-16T09:20:18.281Z,100551.31
2023-05-16T09:22:57.049Z,100557.09
2023-05-16T09:27:57.892Z,100557.28
2023-05-16T09:30:29.760Z,100566.34
2023-05-16T09:32:56.683Z,100575.25
2023-05-16T09:35:42.517Z,100568.94
2023-05-16T09:38:17.052Z,100585.75
2023-05-16T09:40:44.522Z,100580.69
2023-05-16T09:43:15.538Z,100583.69
2023-05-16T09:45:47.263Z,100578.16
2023-05-16T09:48:15.158Z,100580.50
2023-05-16T09:50:46.931Z,100596.50
2023-05-16T09:53:13.618Z,100590.75
2023-05-16T09:55:39.909Z,100594.94
2023-05-16T09:58:06.285Z,100587.00
2023-05-16T10:00:33.519Z,100587.16
2023-05-16T10:03:04.329Z,100587.78
2023-05-16T10:05:31.681Z,100591.53
2023-05-16T10:07:58.303Z,100585.44
2023-05-16T10:10:25.885Z,100595.06
2023-05-16T10:12:52.405Z,100599.34
2023-05-16T10:15:19.711Z,100597.59
2023-05-16T10:17:51.828Z,100605.28
2023-05-16T10:20:20.591Z,100606.44
2023-05-16T10:22:50.316Z,100607.72
2023-05-16T10:25:41.055Z,100622.38
2023-05-16T10:28:08.500Z,100624.00
2023-05-16T10:30:35.849Z,100626.00
2023-05-16T10:33:03.868Z,100629.41
2023-05-16T10:35:32.234Z,100633.31
2023-05-16T10:37:59.952Z,100641.88
2023-05-16T10:40:27.880Z,100646.38
2023-05-16T10:42:59.616Z,100640.75
2023-05-16T10:45:26.455Z,100650.56
2023-05-16T10:48:01.312Z,100658.31
2023-05-16T10:50:42.000Z,100654.69
2023-05-16T10:53:29.619Z,100661.47
2023-05-16T10:55:55.871Z,100669.78
2023-05-16T10:58:38.057Z,100658.31
2023-05-16T11:01:21.488Z,100663.28
2023-05-16T11:03:57.123Z,100673.00
2023-05-16T11:06:27.732Z,100670.44
2023-05-16T11:09:10.305Z,100663.56
2023-05-16T11:11:49.877Z,100665.38
2023-05-16T11:14:31.956Z,100663.00
2023-05-16T11:17:04.091Z,100671.69
2023-05-16T11:19:53.833Z,100674.25
2023-05-16T11:22:23.270Z,100676.53
2023-05-16T11:24:59.482Z,100672.28
2023-05-16T11:27:27.773Z,100681.69
2023-05-16T11:30:00.966Z,100693.91
2023-05-16T11:32:30.065Z,100691.38
2023-05-16T11:34:57.761Z,100693.41
2023-05-16T11:37:24.184Z,100690.16
2023-05-16T11:39:51.305Z,100697.59
2023-05-16T11:42:17.572Z,100689.44
2023-05-16T11:44:45.109Z,100691.16
2023-05-16T11:47:12.094Z,100702.31
2023-05-16T11:49:38.925Z,100706.59
2023-05-16T11:52:07.799Z,100699.91
2023-05-16T11:54:34.910Z,100703.44
2023-05-16T11:57:01.530Z,100701.69
2023-05-16T11:59:28.396Z,100693.59
2023-05-16T12:04:21.749Z,100705.53
2023-05-16T12:06:59.995Z,100715.69
2023-05-16T12:09:27.408Z,100715.69
2023-05-16T12:11:53.965Z,100706.59
2023-05-16T12:14:20.999Z,100714.66
2023-05-16T12:16:48.675Z,100710.00
2023-05-16T12:19:15.864Z,100710.91
2023-05-16T12:21:42.823Z,100707.81
2023-05-16T12:24:12.153Z,100707.56
2023-05-16T12:26:40.682Z,100718.19
2023-05-16T12:29:07.665Z,100717.31
2023-05-16T12:31:39.934Z,100720.31
2023-05-16T12:34:23.096Z,100720.94
2023-05-16T12:36:53.229Z,100735.53
2023-05-16T12:39:20.423Z,100727.09
2023-05-16T12:41:47.092Z,100729.63
2023-05-16T12:44:17.089Z,100727.09
2023-05-16T12:46:45.266Z,100726.25
2023-05-16T12:49:12.881Z,100731.53
2023-05-16T12:51:39.794Z,100721.16
2023-05-16T12:54:11.219Z,100733.84
2023-05-16T12:56:38.895Z,100735.97
2023-05-16T12:59:05.603Z,100736.41
2023-05-16T13:01:32.549Z,100736.19
2023-05-16T13:03:59.173Z,100744.66
2023-05-16T13:06:26.047Z,100741.91
2023-05-16T13:08:52.531Z,100744.66
2023-05-16T13:11:19.181Z,100740.84
2023-05-16T13:13:45.827Z,100744.44
2023-05-16T13:16:12.491Z,100746.81
2023-05-16T13:18:39.235Z,100736.53
2023-05-16T13:21:06.056Z,100743.59
2023-05-16T13:23:32.708Z,100733.09
2023-05-16T13:25:59.150Z,100728.00
2023-05-16T13:28:26.131Z,100726.97
2023-05-16T13:30:52.732Z,100737.72
2023-05-16T13:33:19.493Z,100746.66
2023-05-16T13:35:46.790Z,100746.25
2023-05-16T13:38:15.245Z,100740.56
2023-05-16T13:40:42.179Z,100731.94
2023-05-16T13:43:08.677Z,100734.59
2023-05-16T13:45:35.038Z,100737.09
2023-05-16T13:48:01.486Z,100737.84
2023-05-16T13:50:33.290Z,100736.81
2023-05-16T13:53:00.432Z,100749.22
2023-05-16T13:55:27.432Z,100740.88
2023-05-16T13:57:54.222Z,100742.44
2023-05-16T14:00:42.782Z,100744.53
2023-05-16T14:03:07.275Z,100749.06
2023-05-16T14:05:33.539Z,100751.38
2023-05-16T14:08:00.057Z,100748.22
2023-05-16T14:10:26.532Z,100746.94
2023-05-16T14:12:53.298Z,100742.16
2023-05-16T14:15:20.315Z,100740.25
2023-05-16T14:17:46.864Z,100735.63
2023-05-16T14:20:14.745Z,100737.53
2023-05-16T14:22:41.588Z,100747.63
2023-05-16T14:25:08.326Z,100743.41
2023-05-16T14:27:35.013Z,100747.63
2023-05-16T14:30:01.452Z,100747.28
2023-05-16T14:32:28.449Z,100755.88
2023-05-16T14:34:54.980Z,100756.84
2023-05-16T14:37:21.460Z,100765.47
2023-05-16T14:39:49.980Z,100769.91
2023-05-16T14:42:17.445Z,100769.91
2023-05-16T14:44:44.207Z,100772.66
2023-05-16T14:47:11.195Z,100766.13
2023-05-16T14:49:37.655Z,100773.91
2023-05-16T14:52:05.570Z,100774.84
2023-05-16T14:54:31.961Z,100786.91
2023-05-16T14:56:59.456Z,100785.09
2023-05-16T14:59:27.122Z,100778.94
2023-05-16T15:01:54.322Z,100780.06
2023-05-16T15:04:20.601Z,100784.69
2023-05-16T15:06:47.061Z,100782.78
2023-05-16T15:09:13.325Z,100778.94
2023-05-16T15:11:40.184Z,100781.03
2023-05-16T15:14:06.393Z,100783.69
2023-05-16T15:16:32.970Z,100777.19
2023-05-16T15:18:59.350Z,100781.59
2023-05-16T15:21:26.526Z,100783.69
2023-05-16T15:23:54.557Z,100782.06
2023-05-16T15:26:22.217Z,100779.50
2023-05-16T15:28:48.361Z,100782.41
2023-05-16T15:31:14.897Z,100783.72
2023-05-16T15:33:41.521Z,100781.25
2023-05-16T15:36:08.095Z,100780.47
2023-05-16T15:38:35.697Z,100773.78
2023-05-16T15:41:15.862Z,100788.78
2023-05-16T15:43:51.548Z,100791.34
2023-05-16T15:46:18.060Z,100780.13
2023-05-16T15:48:44.281Z,100782.00
2023-05-16T15:51:12.446Z,100782.97
2023-05-16T15:53:39.170Z,100774.53
2023-05-16T15:56:06.402Z,100778.66
2023-05-16T15:58:32.642Z,100773.31
2023-05-16T16:00:59.349Z,100782.06
2023-05-16T16:03:25.684Z,100778.66
2023-05-16T16:05:52.870Z,100779.22
2023-05-16T16:08:19.889Z,100785.03
2023-05-16T16:10:46.668Z,100790.50
2023-05-16T16:13:12.859Z,100790.00
2023-05-16T16:15:41.468Z,100795.84
2023-05-16T16:18:08.534Z,100803.75
2023-05-16T16:20:35.456Z,100805.31
2023-05-16T16:23:01.726Z,100810.31
2023-05-16T16:25:28.532Z,100808.94
2023-05-16T16:27:55.142Z,100814.69
2023-05-16T16:30:21.644Z,100812.47
2023-05-16T16:32:50.855Z,100814.09
2023-05-16T16:35:17.399Z,100809.91
2023-05-16T16:37:54.603Z,100820.53
2023-05-16T16:40:31.319Z,100822.22
2023-05-16T16:42:58.061Z,100822.38
2023-05-16T16:45:24.808Z,100829.84
2023-05-16T16:47:51.764Z,100833.94
2023-05-16T16:50:18.473Z,100832.59
2023-05-16T16:52:44.856Z,100835.84
2023-05-16T16:55:12.480Z,100829.69
2023-05-16T16:57:40.480Z,100834.69
2023-05-16T17:00:08.258Z,100837.41
2023-05-16T17:02:34.810Z,100836.81
2023-05-16T17:05:04.409Z,100837.44
2023-05-16T17:07:30.900Z,100839.72
2023-05-16T17:09:57.578Z,100842.09
2023-05-16T17:12:27.612Z,100842.09
2023-05-16T17:14:56.553Z,100839.34
2023-05-16T17:17:25.748Z,100839.53
2023-05-16T17:19:52.609Z,100844.63
2023-05-16T17:22:20.631Z,100840.38
2023-05-16T17:24:47.281Z,100840.56
2023-05-16T17:27:13.720Z,100845.16
2023-05-16T17:29:40.316Z,100853.66
2023-05-16T17:32:07.008Z,100845.84
2023-05-16T17:34:33.818Z,100855.53
2023-05-16T17:37:00.265Z,100855.38
2023-05-16T17:39:27.442Z,100858.25
2023-05-16T17:41:54.440Z,100862.19
2023-05-16T17:44:21.337Z,100859.13
2023-05-16T17:46:47.838Z,100870.00
2023-05-16T17:49:14.659Z,100872.72
2023-05-16T17:51:51.811Z,100880.88
2023-05-16T17:54:20.246Z,100883.94
2023-05-16T17:56:48.648Z,100872.34
2023-05-16T17:59:15.781Z,100896.31
2023-05-16T18:01:42.820Z,100892.41
2023-05-16T18:04:10.310Z,100897.34
2023-05-16T18:06:37.456Z,100904.50
2023-05-16T18:09:09.457Z,100912.47
2023-05-16T18:11:38.119Z,100912.84
2023-05-16T18:14:04.937Z,100922.19
2023-05-16T18:16:31.555Z,100921.00
2023-05-16T18:18:58.540Z,100919.66
2023-05-16T18:21:25.334Z,100919.97
2023-05-16T18:23:52.148Z,100912.69
2023-05-16T18:26:18.869Z,100916.78
2023-05-16T18:28:46.565Z,100916.94
2023-05-16T18:31:13.380Z,100918.34
2023-05-16T18:33:40.333Z,100922.56
2023-05-16T18:36:07.634Z,100921.38
2023-05-16T18:38:34.614Z,100923.44
2023-05-16T18:41:01.266Z,100936.72
2023-05-16T18:43:28.537Z,100937.56
2023-05-16T18:45:55.008Z,100940.44
2023-05-16T18:48:21.817Z,100948.44
2023-05-16T18:50:48.226Z,100947.75
2023-05-16T18:53:15.018Z,100943.34
2023-05-16T18:55:41.421Z,100946.94
2023-05-16T18:58:08.314Z,100949.88
2023-05-16T19:00:35.108Z,100944.94
2023-05-16T19:03:01.908Z,100955.84
2023-05-16T19:05:28.307Z,100953.78
2023-05-16T19:07:55.336Z,100945.63
2023-05-16T19:10:24.409Z,100958.88
2023-05-16T19:12:51.306Z,100956.16
2023-05-16T19:15:17.694Z,100952.22
2023-05-16T19:17:44.548Z,100963.28
2023-05-16T19:20:11.276Z,100957.81
2023-05-16T19:22:38.111Z,100952.69
2023-05-16T19:25:06.099Z,100950.81
2023-05-16T19:27:32.858Z,100956.72
2023-05-16T19:29:59.248Z,100953.31
2023-05-16T19:32:29.905Z,100952.97
2023-05-16T19:34:56.869Z,100933.59
2023-05-16T19:37:23.719Z,100929.38
2023-05-16T19:39:50.213Z,100932.75
2023-05-16T19:42:16.844Z,100928.50
2023-05-16T19:44:46.152Z,100932.38
2023-05-16T19:47:12.890Z,100932.53
2023-05-16T19:49:39.498Z,100930.84
2023-05-16T19:52:08.454Z,100937.47
2023-05-16T19:54:34.741Z,100929.69
2023-05-16T19:57:01.304Z,100933.28
2023-05-16T19:59:27.584Z,100938.91
2023-05-16T20:01:54.086Z,100940.94
2023-05-16T20:04:20.424Z,100946.59
2023-05-16T20:06:47.176Z,100951.72
2023-05-16T20:09:14.011Z,100946.94
2023-05-16T20:11:40.840Z,100940.94
2023-05-16T20:14:07.319Z,100944.03
2023-05-16T20:16:34.025Z,100955.78
2023-05-16T20:19:00.589Z,100948.94
2023-05-16T20:21:27.791Z,100951.13
2023-05-16T20:23:54.659Z,100954.34
2023-05-16T20:26:22.007Z,100953.50
2023-05-16T20:28:48.642Z,100956.72
2023-05-16T20:31:15.414Z,100963.22
2023-05-16T20:33:42.200Z,100970.38
2023-05-16T20:36:09.389Z,100961.38
2023-05-16T20:38:37.458Z,100959.84
2023-05-16T20:41:04.269Z,100959.88
2023-05-16T20:43:30.641Z,100962.91
2023-05-16T20:45:57.400Z,100968.69
2023-05-16T20:48:23.956Z,100966.34
2023-05-16T20:50:51.815Z,100968.72
2023-05-16T20:53:18.071Z,100964.69
2023-05-16T20:55:44.756Z,100974.34
2023-05-16T20:58:11.604Z,100973.31
2023-05-16T21:00:38.572Z,100975.19
2023-05-16T21:03:05.008Z,100973.16
2023-05-16T21:05:33.080Z,100974.34
2023-05-16T21:08:00.183Z,100968.03
2023-05-16T21:10:26.832Z,100970.00
2023-05-16T21:12:53.836Z,100984.78
2023-05-16T21:15:22.900Z,100984.91
2023-05-16T21:17:50.092Z,100986.78
2023-05-16T21:20:16.847Z,100978.13
2023-05-16T21:22:43.223Z,100982.53
2023-05-16T21:25:10.008Z,100981.50
2023-05-16T21:27:36.318Z,100978.28
2023-05-16T21:30:03.359Z,100975.88
2023-05-16T21:32:31.754Z,100982.50
2023-05-16T21:35:00.373Z,100982.19
2023-05-16T21:37:26.942Z,100984.94
2023-05-16T21:39:53.442Z,100988.34
2023-05-16T21:42:20.468Z,100994.50
2023-05-16T21:44:47.048Z,100993.31
2023-05-16T21:47:13.550Z,100990.25
2023-05-16T21:49:39.999Z,101001.31
2023-05-16T21:52:07.404Z,100990.94
2023-05-16T21:54:34.222Z,100999.97
2023-05-16T21:57:00.344Z,100998.09
2023-05-16T21:59:26.760Z,101000.13
2023-05-16T22:01:52.921Z,101000.63
2023-05-16T22:04:19.356Z,100986.84
2023-05-16T22:06:45.532Z,100985.47
2023-05-16T22:09:12.315Z,100992.78
2023-05-16T22:11:39.336Z,101000.25
2023-05-16T22:14:05.804Z,100998.88
2023-05-16T22:16:32.009Z,100997.16
2023-05-16T22:18:58.412Z,101002.50
2023-05-16T22:21:24.722Z,101000.25
2023-05-16T22:23:51.162Z,101003.78
2023-05-16T22:26:17.340Z,101002.25
2023-05-16T22:28:44.159Z,101001.88
2023-05-16T22:31:10.255Z,100995.91
2023-05-16T22:33:36.713Z,100999.53
2023-05-16T22:36:03.247Z,100997.81
2023-05-16T22:38:30.881Z,100999.53
2023-05-16T22:40:56.937Z,100998.66
2023-05-16T22:43:23.602Z,100996.59
2023-05-16T22:45:50.728Z,100996.38
2023-05-16T22:48:17.140Z,101004.19
2023-05-16T22:50:43.261Z,101003.66
2023-05-16T22:53:09.692Z,101002.63
2023-05-16T22:55:35.974Z,101001.78
2023-05-16T22:58:02.467Z,100999.91
2023-05-16T23:00:28.533Z,101004.81
2023-05-16T23:02:55.059Z,101011.13
2023-05-16T23:05:21.292Z,101005.03
2023-05-16T23:07:50.352Z,100999.06
2023-05-16T23:10:16.485Z,101009.63
2023-05-16T23:12:42.868Z,101013.34
2023-05-16T23:15:09.623Z,101005.84
2023-05-16T23:17:39.407Z,101006.84
2023-05-16T23:20:06.344Z,101010.00
2023-05-16T23:22:32.935Z,101011.19
2023-05-16T23:24:59.292Z,101005.75
2023-05-16T23:27:25.761Z,101015.06
2023-05-16T23:29:52.209Z,101006.06
2023-05-16T23:32:18.850Z,101006.16
2023-05-16T23:34:45.192Z,101001.97
2023-05-16T23:37:11.688Z,101001.31
2023-05-16T23:39:37.827Z,100999.25
2023-05-16T23:42:04.433Z,101009.78
2023-05-16T23:44:30.940Z,100999.44
2023-05-16T23:46:57.388Z,100999.78
2023-05-16T23:49:23.463Z,101003.34
2023-05-16T23:51:57.429Z,101009.78
2023-05-16T23:54:25.386Z,101012.50
2023-05-16T23:56:52.165Z,101001.25
2023-05-16T23:59:18.351Z,100997.84
